createdAt,value
2022-11-28T00:03:08.115Z,6.65
2022-11-28T00:08:09.908Z,7.32
2022-11-28T00:13:15.602Z,7.00
2022-11-28T00:18:17.301Z,7.10
2022-11-28T00:23:18.993Z,7.85
2022-11-28T00:28:20.563Z,7.60
2022-11-28T00:33:22.584Z,7.28
2022-11-28T00:38:24.318Z,7.43
2022-11-28T00:43:26.063Z,7.90
2022-11-28T00:48:27.973Z,8.80
2022-11-28T00:53:29.674Z,9.02
2022-11-28T00:58:32.802Z,14.13
2022-11-28T01:03:35.756Z,9.30
2022-11-28T01:08:38.204Z,9.65
2022-11-28T01:13:40.665Z,8.60
2022-11-28T01:18:42.501Z,10.32
2022-11-28T01:23:44.484Z,9.65
2022-11-28T01:28:46.997Z,8.65
2022-11-28T01:33:49.413Z,10.48
2022-11-28T01:38:51.591Z,10.30
2022-11-28T01:44:02.478Z,10.15
2022-11-28T01:49:19.042Z,9.25
2022-11-28T01:54:24.210Z,10.50
2022-11-28T01:59:30.546Z,10.75
2022-11-28T02:04:34.320Z,12.02
2022-11-28T02:09:35.922Z,11.25
2022-11-28T02:14:49.189Z,10.18
2022-11-28T02:20:27.903Z,11.82
2022-11-28T02:26:05.719Z,11.82
2022-11-28T02:32:01.687Z,13.02
2022-11-28T02:37:21.017Z,11.65
2022-11-28T02:42:39.291Z,12.15
2022-11-28T02:47:48.876Z,13.52
2022-11-28T02:52:56.181Z,14.65
2022-11-28T02:57:58.059Z,14.13
2022-11-28T03:03:30.413Z,13.77
2022-11-28T03:08:40.675Z,13.82
2022-11-28T03:13:42.298Z,13.30
2022-11-28T03:19:19.193Z,12.38
2022-11-28T03:24:44.306Z,12.82
2022-11-28T03:29:51.174Z,13.45
2022-11-28T03:34:59.568Z,14.60
2022-11-28T03:40:10.630Z,12.18
2022-11-28T03:45:16.609Z,12.73
2022-11-28T03:50:24.795Z,12.10
2022-11-28T03:56:17.098Z,12.00
2022-11-28T04:01:29.750Z,13.65
2022-11-28T04:06:50.521Z,13.25
2022-11-28T04:11:56.491Z,11.90
2022-11-28T04:17:22.939Z,11.40
2022-11-28T04:22:38.542Z,12.52
2022-11-28T04:27:53.329Z,12.50
2022-11-28T04:33:01.817Z,11.32
2022-11-28T04:38:05.876Z,10.70
2022-11-28T04:43:18.989Z,10.90
2022-11-28T04:48:20.806Z,10.15
2022-11-28T04:53:44.038Z,10.35
2022-11-28T04:58:48.667Z,10.20
2022-11-28T05:03:50.900Z,9.60
2022-11-28T05:08:52.639Z,10.35
2022-11-28T05:13:55.406Z,8.98
2022-11-28T05:18:57.096Z,9.85
2022-11-28T05:23:58.716Z,9.77
2022-11-28T05:29:00.345Z,11.00
2022-11-28T05:34:01.921Z,12.65
2022-11-28T05:39:04.089Z,10.75
2022-11-28T05:44:05.718Z,11.55
2022-11-28T05:49:07.297Z,11.65
2022-11-28T05:54:09.181Z,10.85
2022-11-28T05:59:10.758Z,11.70
2022-11-28T06:04:12.417Z,10.38
2022-11-28T06:09:14.083Z,12.15
2022-11-28T06:14:15.675Z,12.77
2022-11-28T06:19:17.316Z,12.10
2022-11-28T06:24:19.123Z,15.52
2022-11-28T06:29:21.126Z,13.65
2022-11-28T06:34:23.897Z,15.10
2022-11-28T06:39:25.647Z,13.88
2022-11-28T06:44:27.312Z,14.18
2022-11-28T06:49:29.050Z,14.73
2022-11-28T06:54:30.698Z,14.85
2022-11-28T06:59:32.456Z,15.68
2022-11-28T07:04:34.110Z,17.42
2022-11-28T07:09:35.694Z,17.58
2022-11-28T07:14:37.362Z,21.55
2022-11-28T07:19:39.190Z,18.20
2022-11-28T07:24:40.950Z,20.33
2022-11-28T07:29:42.949Z,20.63
2022-11-28T07:34:49.888Z,20.10
2022-11-28T07:39:52.279Z,21.42
2022-11-28T07:44:53.998Z,23.42
2022-11-28T07:49:55.874Z,22.20
2022-11-28T07:54:57.478Z,24.52
2022-11-28T07:59:59.115Z,27.90
2022-11-28T08:05:01.190Z,31.20
2022-11-28T08:10:06.240Z,34.17
2022-11-28T08:15:08.309Z,31.38
2022-11-28T08:20:10.316Z,32.33
2022-11-28T08:25:11.995Z,29.95
2022-11-28T08:30:14.126Z,35.75
2022-11-28T08:35:15.957Z,36.92
2022-11-28T08:40:17.699Z,31.70
2022-11-28T08:45:19.426Z,30.27
2022-11-28T08:50:21.015Z,32.80
2022-11-28T08:55:31.750Z,31.08
2022-11-28T09:00:34.151Z,31.95
2022-11-28T09:05:35.810Z,33.30
2022-11-28T09:10:38.765Z,28.65
2022-11-28T09:15:46.264Z,34.13
2022-11-28T09:20:49.127Z,30.55
2022-11-28T09:25:50.801Z,37.72
2022-11-28T09:31:00.115Z,36.03
2022-11-28T09:36:09.918Z,34.80
2022-11-28T09:41:17.582Z,35.60
2022-11-28T09:46:28.042Z,34.20
2022-11-28T09:51:52.607Z,38.08
2022-11-28T09:56:54.539Z,39.55
2022-11-28T10:02:17.877Z,36.42
2022-11-28T10:07:26.851Z,37.85
2022-11-28T10:12:56.233Z,40.70
2022-11-28T10:18:28.746Z,40.47
2022-11-28T10:23:38.273Z,40.97
2022-11-28T10:28:43.978Z,42.03
2022-11-28T10:33:55.063Z,39.83
2022-11-28T10:38:57.532Z,38.33
2022-11-28T10:44:27.776Z,40.33
2022-11-28T10:49:29.478Z,39.88
2022-11-28T10:54:49.410Z,44.13
2022-11-28T10:59:59.875Z,34.05
2022-11-28T11:05:01.719Z,34.50
2022-11-28T11:10:15.245Z,34.33
2022-11-28T11:15:19.231Z,34.88
2022-11-28T11:20:21.024Z,36.70
2022-11-28T11:25:25.451Z,35.42
2022-11-28T11:30:38.914Z,33.45
2022-11-28T11:35:47.125Z,37.90
2022-11-28T11:40:52.555Z,30.05
2022-11-28T11:46:15.028Z,26.08
2022-11-28T11:51:24.708Z,29.38
2022-11-28T11:56:28.589Z,26.00
2022-11-28T12:01:32.097Z,28.35
2022-11-28T12:06:47.083Z,27.77
2022-11-28T12:12:01.941Z,25.65
2022-11-28T12:22:47.899Z,27.27
2022-11-28T12:27:52.394Z,25.00
2022-11-28T12:33:12.760Z,21.02
2022-11-28T12:44:08.862Z,31.13
2022-11-28T12:49:43.055Z,27.17
2022-11-28T12:54:50.940Z,24.52
2022-11-28T13:00:08.369Z,24.80
2022-11-28T13:05:19.458Z,22.67
2022-11-28T13:10:28.755Z,20.73
2022-11-28T13:15:51.565Z,22.48
2022-11-28T13:20:58.814Z,20.25
2022-11-28T13:26:11.334Z,24.35
2022-11-28T13:31:24.507Z,19.02
2022-11-28T13:42:52.310Z,17.08
2022-11-28T13:47:38.422Z,25.65
2022-11-28T13:52:43.524Z,23.30
2022-11-28T13:57:45.869Z,24.63
2022-11-28T14:02:58.996Z,18.40
2022-11-28T14:08:02.373Z,19.23
2022-11-28T14:13:13.015Z,21.20
2022-11-28T14:18:58.837Z,21.67
2022-11-28T14:24:14.202Z,25.20
2022-11-28T14:29:23.004Z,23.25
2022-11-28T14:34:43.064Z,28.17
2022-11-28T14:39:56.048Z,25.73
2022-11-28T14:45:08.157Z,28.92
2022-11-28T14:50:13.618Z,29.58
2022-11-28T14:55:21.702Z,24.73
2022-11-28T15:00:32.463Z,25.17
2022-11-28T15:05:45.372Z,27.77
2022-11-28T15:10:57.474Z,32.35
2022-11-28T15:16:00.476Z,28.58
2022-11-28T15:21:07.283Z,33.80
2022-11-28T15:26:21.740Z,30.92
2022-11-28T15:31:23.776Z,29.33
2022-11-28T15:36:29.930Z,26.80
2022-11-28T15:41:33.579Z,29.60
2022-11-28T15:46:35.450Z,35.10
2022-11-28T15:51:37.406Z,29.55
2022-11-28T15:56:39.279Z,33.53
2022-11-28T16:01:41.306Z,31.75
2022-11-28T16:06:50.003Z,30.17
2022-11-28T16:11:54.044Z,36.47
2022-11-28T16:16:58.102Z,32.80
2022-11-28T16:22:06.806Z,32.35
2022-11-28T16:27:24.261Z,33.35
2022-11-28T16:32:38.013Z,32.40
2022-11-28T16:37:39.886Z,30.13
2022-11-28T16:42:42.069Z,29.55
2022-11-28T16:47:45.672Z,32.88
2022-11-28T16:53:00.530Z,36.60
2022-11-28T16:58:07.434Z,31.63
2022-11-28T17:03:40.499Z,41.53
2022-11-28T17:08:42.242Z,35.63
2022-11-28T17:13:44.041Z,30.42
2022-11-28T17:18:46.605Z,32.97
2022-11-28T17:23:48.248Z,33.13
2022-11-28T17:28:49.954Z,31.60
2022-11-28T17:33:51.659Z,37.22
2022-11-28T17:38:53.404Z,30.55
2022-11-28T17:43:55.100Z,28.30
2022-11-28T17:48:59.134Z,33.03
2022-11-28T17:54:00.859Z,40.78
2022-11-28T17:59:02.555Z,33.53
2022-11-28T18:04:04.738Z,29.10
2022-11-28T18:09:11.693Z,30.77
2022-11-28T18:14:19.207Z,33.92
2022-11-28T18:19:21.365Z,32.20
2022-11-28T18:24:23.052Z,30.80
2022-11-28T18:29:24.951Z,35.05
2022-11-28T18:34:28.027Z,25.58
2022-11-28T18:39:31.291Z,28.70
2022-11-28T18:44:33.630Z,29.08
2022-11-28T18:50:00.364Z,27.65
2022-11-28T18:55:02.914Z,31.02
2022-11-28T19:00:06.384Z,33.75
2022-11-28T19:05:08.231Z,28.10
2022-11-28T19:10:10.101Z,26.05
2022-11-28T19:15:12.193Z,25.45
2022-11-28T19:20:14.017Z,24.73
2022-11-28T19:25:16.156Z,33.10
2022-11-28T19:30:18.010Z,35.40
2022-11-28T19:35:19.847Z,28.70
2022-11-28T19:40:21.864Z,34.22
2022-11-28T19:45:24.804Z,34.95
2022-11-28T19:50:26.416Z,50.88
2022-11-28T19:55:28.126Z,35.60
2022-11-28T20:00:29.766Z,39.10
2022-11-28T20:05:34.947Z,41.83
2022-11-28T20:10:39.190Z,34.75
2022-11-28T20:15:41.870Z,38.10
2022-11-28T20:20:43.477Z,40.22
2022-11-28T20:25:45.219Z,47.13
2022-11-28T20:30:47.570Z,46.47
2022-11-28T20:35:49.415Z,46.65
2022-11-28T20:40:51.057Z,53.78
2022-11-28T20:45:52.975Z,46.97
2022-11-28T20:50:54.657Z,47.92
2022-11-28T20:56:05.254Z,45.13
2022-11-28T21:01:07.294Z,53.28
2022-11-28T21:06:09.692Z,52.47
2022-11-28T21:11:25.600Z,48.20
2022-11-28T21:16:36.909Z,48.55
2022-11-28T21:21:40.126Z,52.28
2022-11-28T21:26:46.644Z,47.80
2022-11-28T21:31:52.311Z,53.72
2022-11-28T21:36:55.095Z,55.47
2022-11-28T21:41:56.747Z,57.40
2022-11-28T21:46:58.415Z,48.13
2022-11-28T21:52:00.193Z,55.97
2022-11-28T21:57:02.007Z,54.45
2022-11-28T22:02:08.553Z,56.15
2022-11-28T22:12:15.205Z,56.58
2022-11-28T22:17:16.929Z,52.90
2022-11-28T22:22:18.699Z,59.05
2022-11-28T22:27:20.650Z,52.67
2022-11-28T22:32:22.425Z,56.08
2022-11-28T22:37:24.099Z,49.83
2022-11-28T22:42:26.175Z,51.33
2022-11-28T22:47:27.893Z,46.90
2022-11-28T22:52:29.527Z,53.83
2022-11-28T22:57:31.556Z,53.78
2022-11-28T23:02:33.224Z,53.10
2022-11-28T23:07:35.028Z,51.42
2022-11-28T23:12:36.754Z,53.28
2022-11-28T23:17:38.438Z,50.42
2022-11-28T23:22:40.043Z,50.10
2022-11-28T23:27:41.866Z,43.70
2022-11-28T23:32:44.656Z,42.17
2022-11-28T23:37:46.330Z,54.72
2022-11-28T23:42:47.999Z,46.92
2022-11-28T23:47:49.677Z,47.72
2022-11-28T23:52:51.373Z,45.05
2022-11-28T23:57:54.221Z,52.53
